sensor_id;sensor_type;location;lat;lon;timestamp;P1;durP1;ratioP1;P2;durP2;ratioP2
32788;SDS011;19141;48.980;8.410;2022-07-29T04:22:46;9.68;;;8.05;;
32788;SDS011;19141;48.980;8.410;2022-07-29T04:25:12;12.85;;;8.73;;
32788;SDS011;19141;48.980;8.410;2022-07-29T04:27:37;11.05;;;8.35;;
32788;SDS011;19141;48.980;8.410;2022-07-29T04:30:23;10.88;;;8.60;;
32788;SDS011;19141;48.980;8.410;2022-07-29T04:32:48;12.13;;;8.93;;
32788;SDS011;19141;48.980;8.410;2022-07-29T04:35:13;10.00;;;8.60;;
32788;SDS011;19141;48.980;8.410;2022-07-29T04:37:39;13.98;;;10.23;;
32788;SDS011;19141;48.980;8.410;2022-07-29T04:40:04;19.08;;;10.90;;
32788;SDS011;19141;48.980;8.410;2022-07-29T04:42:30;11.13;;;8.27;;
32788;SDS011;19141;48.980;8.410;2022-07-29T04:44:56;13.70;;;8.80;;
32788;SDS011;19141;48.980;8.410;2022-07-29T04:47:21;11.65;;;8.32;;
32788;SDS011;19141;48.980;8.410;2022-07-29T04:49:47;10.65;;;7.88;;
32788;SDS011;19141;48.980;8.410;2022-07-29T04:52:12;11.15;;;8.75;;
32788;SDS011;19141;48.980;8.410;2022-07-29T04:54:38;10.23;;;8.38;;
32788;SDS011;19141;48.980;8.410;2022-07-29T04:57:03;12.32;;;9.00;;
32788;SDS011;19141;48.980;8.410;2022-07-29T04:59:28;10.90;;;8.10;;
32788;SDS011;19141;48.980;8.410;2022-07-29T05:01:54;13.85;;;8.90;;
32788;SDS011;19141;48.980;8.410;2022-07-29T05:04:19;12.25;;;10.10;;
32788;SDS011;19141;48.980;8.410;2022-07-29T05:06:45;13.85;;;9.75;;
32788;SDS011;19141;48.980;8.410;2022-07-29T05:09:10;16.98;;;10.23;;
32788;SDS011;19141;48.980;8.410;2022-07-29T05:11:36;13.27;;;9.05;;
32788;SDS011;19141;48.980;8.410;2022-07-29T05:14:01;16.35;;;10.50;;
32788;SDS011;19141;48.980;8.410;2022-07-29T05:16:26;13.48;;;9.75;;
32788;SDS011;19141;48.980;8.410;2022-07-29T05:18:52;14.95;;;10.05;;
32788;SDS011;19141;48.980;8.410;2022-07-29T05:21:18;12.23;;;9.43;;
32788;SDS011;19141;48.980;8.410;2022-07-29T05:23:43;16.23;;;9.50;;
32788;SDS011;19141;48.980;8.410;2022-07-29T05:26:08;18.42;;;10.85;;
32788;SDS011;19141;48.980;8.410;2022-07-29T05:28:34;19.17;;;10.25;;
32788;SDS011;19141;48.980;8.410;2022-07-29T05:31:00;16.95;;;10.20;;
32788;SDS011;19141;48.980;8.410;2022-07-29T05:33:25;15.77;;;10.40;;
32788;SDS011;19141;48.980;8.410;2022-07-29T05:35:51;16.23;;;10.68;;
32788;SDS011;19141;48.980;8.410;2022-07-29T05:38:16;13.23;;;9.52;;
32788;SDS011;19141;48.980;8.410;2022-07-29T05:40:41;14.90;;;10.30;;
32788;SDS011;19141;48.980;8.410;2022-07-29T05:43:07;17.02;;;10.90;;
32788;SDS011;19141;48.980;8.410;2022-07-29T05:45:32;14.95;;;9.60;;
32788;SDS011;19141;48.980;8.410;2022-07-29T05:47:58;16.65;;;10.52;;
32788;SDS011;19141;48.980;8.410;2022-07-29T05:50:23;15.70;;;9.00;;
32788;SDS011;19141;48.980;8.410;2022-07-29T05:52:49;15.02;;;9.05;;
32788;SDS011;19141;48.980;8.410;2022-07-29T05:55:15;12.82;;;8.75;;
32788;SDS011;19141;48.980;8.410;2022-07-29T05:57:40;20.17;;;8.80;;
32788;SDS011;19141;48.980;8.410;2022-07-29T06:00:06;13.10;;;9.05;;
32788;SDS011;19141;48.980;8.410;2022-07-29T06:02:37;11.80;;;8.43;;
32788;SDS011;19141;48.980;8.410;2022-07-29T06:05:03;12.13;;;8.48;;
32788;SDS011;19141;48.980;8.410;2022-07-29T06:07:28;10.63;;;8.35;;
32788;SDS011;19141;48.980;8.410;2022-07-29T06:09:54;12.43;;;8.63;;
32788;SDS011;19141;48.980;8.410;2022-07-29T06:12:19;12.13;;;8.88;;
32788;SDS011;19141;48.980;8.410;2022-07-29T06:14:45;11.18;;;8.52;;
32788;SDS011;19141;48.980;8.410;2022-07-29T06:17:10;11.57;;;8.73;;
32788;SDS011;19141;48.980;8.410;2022-07-29T06:19:37;14.75;;;9.27;;
32788;SDS011;19141;48.980;8.410;2022-07-29T06:22:02;17.52;;;8.52;;
32788;SDS011;19141;48.980;8.410;2022-07-29T06:24:28;18.80;;;8.90;;
32788;SDS011;19141;48.980;8.410;2022-07-29T06:26:54;11.38;;;7.85;;
32788;SDS011;19141;48.980;8.410;2022-07-29T06:29:19;11.82;;;8.38;;
32788;SDS011;19141;48.980;8.410;2022-07-29T06:31:45;10.10;;;7.68;;
32788;SDS011;19141;48.980;8.410;2022-07-29T06:34:10;11.32;;;7.97;;
32788;SDS011;19141;48.980;8.410;2022-07-29T06:36:36;11.70;;;7.10;;
32788;SDS011;19141;48.980;8.410;2022-07-29T06:39:08;13.13;;;7.13;;
32788;SDS011;19141;48.980;8.410;2022-07-29T06:41:34;11.48;;;7.53;;
32788;SDS011;19141;48.980;8.410;2022-07-29T06:44:07;18.30;;;8.55;;
32788;SDS011;19141;48.980;8.410;2022-07-29T06:46:33;10.13;;;7.00;;
32788;SDS011;19141;48.980;8.410;2022-07-29T06:48:58;14.45;;;8.05;;
32788;SDS011;19141;48.980;8.410;2022-07-29T06:53:52;14.18;;;7.80;;
32788;SDS011;19141;48.980;8.410;2022-07-29T06:56:18;13.43;;;7.72;;
32788;SDS011;19141;48.980;8.410;2022-07-29T06:58:43;11.75;;;7.20;;
32788;SDS011;19141;48.980;8.410;2022-07-29T07:01:08;7.78;;;6.13;;
32788;SDS011;19141;48.980;8.410;2022-07-29T07:03:34;8.05;;;6.55;;
32788;SDS011;19141;48.980;8.410;2022-07-29T07:05:59;10.55;;;6.68;;
32788;SDS011;19141;48.980;8.410;2022-07-29T07:08:25;9.38;;;6.70;;
32788;SDS011;19141;48.980;8.410;2022-07-29T07:10:51;13.02;;;9.73;;
32788;SDS011;19141;48.980;8.410;2022-07-29T07:13:17;11.32;;;8.20;;
32788;SDS011;19141;48.980;8.410;2022-07-29T07:15:43;10.35;;;6.63;;
32788;SDS011;19141;48.980;8.410;2022-07-29T07:18:10;11.15;;;7.68;;
32788;SDS011;19141;48.980;8.410;2022-07-29T07:20:36;9.02;;;6.50;;
32788;SDS011;19141;48.980;8.410;2022-07-29T07:23:02;9.45;;;6.35;;
32788;SDS011;19141;48.980;8.410;2022-07-29T07:25:27;9.82;;;6.72;;
32788;SDS011;19141;48.980;8.410;2022-07-29T07:27:53;7.65;;;5.88;;
32788;SDS011;19141;48.980;8.410;2022-07-29T07:30:19;12.48;;;6.80;;
32788;SDS011;19141;48.980;8.410;2022-07-29T07:32:44;8.63;;;6.47;;
32788;SDS011;19141;48.980;8.410;2022-07-29T07:35:10;9.57;;;6.70;;
32788;SDS011;19141;48.980;8.410;2022-07-29T07:37:35;8.05;;;6.55;;
32788;SDS011;19141;48.980;8.410;2022-07-29T07:40:02;7.22;;;6.10;;
32788;SDS011;19141;48.980;8.410;2022-07-29T07:42:28;9.63;;;5.75;;
32788;SDS011;19141;48.980;8.410;2022-07-29T07:44:54;7.22;;;5.22;;
32788;SDS011;19141;48.980;8.410;2022-07-29T07:47:19;8.43;;;5.60;;
32788;SDS011;19141;48.980;8.410;2022-07-29T07:49:45;8.25;;;5.72;;
32788;SDS011;19141;48.980;8.410;2022-07-29T07:52:12;8.90;;;5.90;;
32788;SDS011;19141;48.980;8.410;2022-07-29T07:54:37;6.90;;;5.00;;
32788;SDS011;19141;48.980;8.410;2022-07-29T07:57:03;8.43;;;5.45;;
32788;SDS011;19141;48.980;8.410;2022-07-29T07:59:28;6.43;;;5.22;;
32788;SDS011;19141;48.980;8.410;2022-07-29T08:01:54;7.68;;;4.97;;
32788;SDS011;19141;48.980;8.410;2022-07-29T08:04:19;7.15;;;4.82;;
32788;SDS011;19141;48.980;8.410;2022-07-29T08:06:45;13.00;;;5.43;;
32788;SDS011;19141;48.980;8.410;2022-07-29T08:09:10;6.97;;;4.80;;
32788;SDS011;19141;48.980;8.410;2022-07-29T08:11:36;8.73;;;5.57;;
32788;SDS011;19141;48.980;8.410;2022-07-29T08:14:01;5.57;;;4.72;;
32788;SDS011;19141;48.980;8.410;2022-07-29T08:16:27;9.07;;;4.80;;
32788;SDS011;19141;48.980;8.410;2022-07-29T08:18:53;6.10;;;4.45;;
32788;SDS011;19141;48.980;8.410;2022-07-29T08:21:22;4.80;;;4.30;;
32788;SDS011;19141;48.980;8.410;2022-07-29T08:23:48;6.22;;;4.97;;
32788;SDS011;19141;48.980;8.410;2022-07-29T08:26:17;5.40;;;4.45;;
32788;SDS011;19141;48.980;8.410;2022-07-29T08:28:43;7.97;;;4.40;;
32788;SDS011;19141;48.980;8.410;2022-07-29T08:33:36;6.55;;;3.55;;
32788;SDS011;19141;48.980;8.410;2022-07-29T08:36:01;6.68;;;4.15;;
32788;SDS011;19141;48.980;8.410;2022-07-29T08:38:27;5.38;;;3.70;;
32788;SDS011;19141;48.980;8.410;2022-07-29T08:40:52;5.63;;;4.20;;
32788;SDS011;19141;48.980;8.410;2022-07-29T08:43:18;6.32;;;3.97;;
32788;SDS011;19141;48.980;8.410;2022-07-29T08:45:45;4.85;;;3.60;;
32788;SDS011;19141;48.980;8.410;2022-07-29T08:48:12;5.05;;;3.47;;
32788;SDS011;19141;48.980;8.410;2022-07-29T08:50:39;17.95;;;4.07;;
32788;SDS011;19141;48.980;8.410;2022-07-29T08:53:06;6.30;;;3.60;;
32788;SDS011;19141;48.980;8.410;2022-07-29T08:55:35;7.15;;;3.90;;
32788;SDS011;19141;48.980;8.410;2022-07-29T08:58:03;6.13;;;3.45;;
32788;SDS011;19141;48.980;8.410;2022-07-29T09:00:30;3.88;;;3.22;;
32788;SDS011;19141;48.980;8.410;2022-07-29T09:02:57;7.93;;;3.83;;
32788;SDS011;19141;48.980;8.410;2022-07-29T09:05:24;7.20;;;3.60;;
32788;SDS011;19141;48.980;8.410;2022-07-29T09:07:51;6.65;;;4.03;;
32788;SDS011;19141;48.980;8.410;2022-07-29T09:10:17;6.88;;;3.72;;
32788;SDS011;19141;48.980;8.410;2022-07-29T09:12:43;6.15;;;3.30;;
32788;SDS011;19141;48.980;8.410;2022-07-29T09:15:08;7.57;;;3.60;;
32788;SDS011;19141;48.980;8.410;2022-07-29T09:17:44;5.43;;;3.30;;
32788;SDS011;19141;48.980;8.410;2022-07-29T09:20:12;4.93;;;3.53;;
32788;SDS011;19141;48.980;8.410;2022-07-29T09:22:41;6.22;;;3.55;;
32788;SDS011;19141;48.980;8.410;2022-07-29T09:25:07;4.80;;;3.22;;
32788;SDS011;19141;48.980;8.410;2022-07-29T09:27:33;8.73;;;3.30;;
32788;SDS011;19141;48.980;8.410;2022-07-29T09:30:00;6.97;;;3.85;;
32788;SDS011;19141;48.980;8.410;2022-07-29T09:32:54;3.72;;;2.97;;
32788;SDS011;19141;48.980;8.410;2022-07-29T09:35:25;10.20;;;3.55;;
32788;SDS011;19141;48.980;8.410;2022-07-29T09:37:51;3.60;;;2.93;;
32788;SDS011;19141;48.980;8.410;2022-07-29T09:40:21;7.53;;;3.60;;
32788;SDS011;19141;48.980;8.410;2022-07-29T09:42:47;5.50;;;3.20;;
32788;SDS011;19141;48.980;8.410;2022-07-29T09:45:13;7.45;;;3.38;;
32788;SDS011;19141;48.980;8.410;2022-07-29T09:47:52;4.63;;;3.20;;
32788;SDS011;19141;48.980;8.410;2022-07-29T09:50:17;4.00;;;3.50;;
32788;SDS011;19141;48.980;8.410;2022-07-29T09:52:49;6.30;;;3.40;;
32788;SDS011;19141;48.980;8.410;2022-07-29T09:55:16;5.50;;;2.95;;
32788;SDS011;19141;48.980;8.410;2022-07-29T09:57:42;7.33;;;3.00;;
32788;SDS011;19141;48.980;8.410;2022-07-29T10:00:13;3.35;;;3.00;;
32788;SDS011;19141;48.980;8.410;2022-07-29T10:02:41;5.85;;;3.15;;
32788;SDS011;19141;48.980;8.410;2022-07-29T10:07:50;4.53;;;2.92;;
32788;SDS011;19141;48.980;8.410;2022-07-29T10:12:49;5.38;;;3.38;;
32788;SDS011;19141;48.980;8.410;2022-07-29T10:15:20;3.75;;;3.00;;
32788;SDS011;19141;48.980;8.410;2022-07-29T10:17:46;5.28;;;3.08;;
32788;SDS011;19141;48.980;8.410;2022-07-29T10:20:13;3.42;;;2.50;;
32788;SDS011;19141;48.980;8.410;2022-07-29T10:22:40;4.75;;;3.05;;
32788;SDS011;19141;48.980;8.410;2022-07-29T10:25:06;5.40;;;2.75;;
32788;SDS011;19141;48.980;8.410;2022-07-29T10:27:34;4.53;;;2.85;;
32788;SDS011;19141;48.980;8.410;2022-07-29T10:30:01;5.47;;;2.83;;
32788;SDS011;19141;48.980;8.410;2022-07-29T10:32:33;5.15;;;2.80;;
32788;SDS011;19141;48.980;8.410;2022-07-29T10:35:08;7.75;;;3.90;;
32788;SDS011;19141;48.980;8.410;2022-07-29T10:37:52;3.10;;;2.53;;
32788;SDS011;19141;48.980;8.410;2022-07-29T10:44:03;3.40;;;2.75;;
32788;SDS011;19141;48.980;8.410;2022-07-29T10:46:34;7.65;;;2.85;;
32788;SDS011;19141;48.980;8.410;2022-07-29T10:49:05;6.38;;;3.00;;
32788;SDS011;19141;48.980;8.410;2022-07-29T10:51:50;4.20;;;2.33;;
32788;SDS011;19141;48.980;8.410;2022-07-29T10:54:16;6.13;;;2.65;;
32788;SDS011;19141;48.980;8.410;2022-07-29T10:56:42;6.00;;;2.35;;
32788;SDS011;19141;48.980;8.410;2022-07-29T11:01:46;6.93;;;2.10;;
32788;SDS011;19141;48.980;8.410;2022-07-29T11:09:27;5.53;;;2.45;;
32788;SDS011;19141;48.980;8.410;2022-07-29T11:11:54;6.18;;;2.95;;
32788;SDS011;19141;48.980;8.410;2022-07-29T11:17:20;6.15;;;2.83;;
32788;SDS011;19141;48.980;8.410;2022-07-29T11:19:46;6.20;;;3.30;;
32788;SDS011;19141;48.980;8.410;2022-07-29T11:22:12;3.03;;;1.97;;
32788;SDS011;19141;48.980;8.410;2022-07-29T11:25:16;8.68;;;4.38;;
32788;SDS011;19141;48.980;8.410;2022-07-29T11:27:44;3.92;;;2.30;;
32788;SDS011;19141;48.980;8.410;2022-07-29T11:30:10;3.03;;;1.70;;
32788;SDS011;19141;48.980;8.410;2022-07-29T11:32:41;4.65;;;1.98;;
32788;SDS011;19141;48.980;8.410;2022-07-29T11:35:11;4.03;;;1.98;;
32788;SDS011;19141;48.980;8.410;2022-07-29T11:38:22;2.78;;;2.13;;
32788;SDS011;19141;48.980;8.410;2022-07-29T11:43:51;5.05;;;2.20;;
32788;SDS011;19141;48.980;8.410;2022-07-29T11:49:12;2.47;;;1.60;;
32788;SDS011;19141;48.980;8.410;2022-07-29T11:51:38;2.58;;;1.70;;
32788;SDS011;19141;48.980;8.410;2022-07-29T11:54:04;4.60;;;2.03;;
32788;SDS011;19141;48.980;8.410;2022-07-29T11:56:33;2.03;;;1.70;;
32788;SDS011;19141;48.980;8.410;2022-07-29T11:59:06;1.95;;;1.80;;
32788;SDS011;19141;48.980;8.410;2022-07-29T12:01:34;2.42;;;1.92;;
32788;SDS011;19141;48.980;8.410;2022-07-29T12:04:03;2.28;;;1.70;;
32788;SDS011;19141;48.980;8.410;2022-07-29T12:06:30;4.60;;;1.80;;
32788;SDS011;19141;48.980;8.410;2022-07-29T12:08:56;2.97;;;1.70;;
32788;SDS011;19141;48.980;8.410;2022-07-29T12:11:21;3.40;;;1.80;;
32788;SDS011;19141;48.980;8.410;2022-07-29T12:13:47;1.97;;;1.53;;
32788;SDS011;19141;48.980;8.410;2022-07-29T12:16:13;2.50;;;1.80;;
32788;SDS011;19141;48.980;8.410;2022-07-29T12:18:38;2.87;;;1.60;;
32788;SDS011;19141;48.980;8.410;2022-07-29T12:21:04;4.95;;;2.17;;
32788;SDS011;19141;48.980;8.410;2022-07-29T12:23:30;3.87;;;2.03;;
32788;SDS011;19141;48.980;8.410;2022-07-29T12:25:57;5.38;;;2.10;;
32788;SDS011;19141;48.980;8.410;2022-07-29T12:30:49;2.00;;;1.60;;
32788;SDS011;19141;48.980;8.410;2022-07-29T12:33:17;2.88;;;1.80;;
32788;SDS011;19141;48.980;8.410;2022-07-29T12:35:54;2.70;;;1.70;;
32788;SDS011;19141;48.980;8.410;2022-07-29T12:38:21;3.15;;;2.03;;
32788;SDS011;19141;48.980;8.410;2022-07-29T12:40:48;5.13;;;2.13;;
32788;SDS011;19141;48.980;8.410;2022-07-29T12:43:19;4.85;;;3.03;;
32788;SDS011;19141;48.980;8.410;2022-07-29T12:45:46;2.53;;;1.50;;
32788;SDS011;19141;48.980;8.410;2022-07-29T12:48:13;3.22;;;1.77;;
32788;SDS011;19141;48.980;8.410;2022-07-29T12:50:55;4.03;;;1.67;;
32788;SDS011;19141;48.980;8.410;2022-07-29T12:53:23;5.15;;;2.90;;
32788;SDS011;19141;48.980;8.410;2022-07-29T12:55:49;9.20;;;4.63;;
32788;SDS011;19141;48.980;8.410;2022-07-29T13:01:06;2.67;;;1.70;;
32788;SDS011;19141;48.980;8.410;2022-07-29T13:03:50;6.55;;;1.75;;
32788;SDS011;19141;48.980;8.410;2022-07-29T13:06:32;3.72;;;1.60;;
32788;SDS011;19141;48.980;8.410;2022-07-29T13:11:34;4.40;;;1.90;;
32788;SDS011;19141;48.980;8.410;2022-07-29T13:14:00;3.08;;;1.60;;
32788;SDS011;19141;48.980;8.410;2022-07-29T13:16:26;3.47;;;1.75;;
32788;SDS011;19141;48.980;8.410;2022-07-29T13:19:05;2.85;;;1.50;;
32788;SDS011;19141;48.980;8.410;2022-07-29T13:21:32;2.70;;;1.80;;
32788;SDS011;19141;48.980;8.410;2022-07-29T13:23:58;5.53;;;1.92;;
32788;SDS011;19141;48.980;8.410;2022-07-29T13:26:24;4.35;;;2.13;;
32788;SDS011;19141;48.980;8.410;2022-07-29T13:28:49;4.93;;;1.60;;
32788;SDS011;19141;48.980;8.410;2022-07-29T13:31:15;2.10;;;1.60;;
32788;SDS011;19141;48.980;8.410;2022-07-29T13:33:40;2.08;;;1.50;;
32788;SDS011;19141;48.980;8.410;2022-07-29T13:36:06;4.15;;;1.98;;
32788;SDS011;19141;48.980;8.410;2022-07-29T13:38:31;4.10;;;1.80;;
32788;SDS011;19141;48.980;8.410;2022-07-29T13:40:57;2.40;;;1.70;;
32788;SDS011;19141;48.980;8.410;2022-07-29T13:43:23;2.40;;;1.60;;
32788;SDS011;19141;48.980;8.410;2022-07-29T13:45:48;2.72;;;2.17;;
32788;SDS011;19141;48.980;8.410;2022-07-29T13:48:14;2.85;;;1.60;;
32788;SDS011;19141;48.980;8.410;2022-07-29T13:50:39;4.53;;;1.88;;
32788;SDS011;19141;48.980;8.410;2022-07-29T13:53:05;4.93;;;1.88;;
32788;SDS011;19141;48.980;8.410;2022-07-29T13:55:30;5.40;;;1.77;;
32788;SDS011;19141;48.980;8.410;2022-07-29T13:57:55;2.35;;;1.42;;
32788;SDS011;19141;48.980;8.410;2022-07-29T14:00:21;3.25;;;1.20;;
32788;SDS011;19141;48.980;8.410;2022-07-29T14:05:14;3.27;;;1.40;;
32788;SDS011;19141;48.980;8.410;2022-07-29T14:07:39;2.58;;;1.60;;
32788;SDS011;19141;48.980;8.410;2022-07-29T14:10:05;4.05;;;1.67;;
32788;SDS011;19141;48.980;8.410;2022-07-29T14:12:31;4.00;;;2.00;;
32788;SDS011;19141;48.980;8.410;2022-07-29T14:14:56;3.35;;;1.85;;
32788;SDS011;19141;48.980;8.410;2022-07-29T14:17:22;6.22;;;1.50;;
32788;SDS011;19141;48.980;8.410;2022-07-29T14:19:47;2.00;;;1.40;;
32788;SDS011;19141;48.980;8.410;2022-07-29T14:22:13;3.55;;;1.60;;
32788;SDS011;19141;48.980;8.410;2022-07-29T14:24:39;2.03;;;1.45;;
32788;SDS011;19141;48.980;8.410;2022-07-29T14:27:05;5.55;;;1.52;;
32788;SDS011;19141;48.980;8.410;2022-07-29T14:29:31;2.97;;;1.50;;
32788;SDS011;19141;48.980;8.410;2022-07-29T14:31:57;1.98;;;1.38;;
32788;SDS011;19141;48.980;8.410;2022-07-29T14:34:23;2.72;;;1.80;;
32788;SDS011;19141;48.980;8.410;2022-07-29T14:36:48;3.72;;;1.77;;
32788;SDS011;19141;48.980;8.410;2022-07-29T14:39:14;2.38;;;1.83;;
32788;SDS011;19141;48.980;8.410;2022-07-29T14:41:40;2.25;;;1.50;;
32788;SDS011;19141;48.980;8.410;2022-07-29T14:44:06;4.35;;;1.67;;
32788;SDS011;19141;48.980;8.410;2022-07-29T14:46:31;2.65;;;1.30;;
32788;SDS011;19141;48.980;8.410;2022-07-29T14:48:57;4.75;;;1.70;;
32788;SDS011;19141;48.980;8.410;2022-07-29T14:51:22;3.00;;;1.63;;
32788;SDS011;19141;48.980;8.410;2022-07-29T14:53:47;2.80;;;1.58;;
32788;SDS011;19141;48.980;8.410;2022-07-29T14:56:13;6.78;;;1.70;;
32788;SDS011;19141;48.980;8.410;2022-07-29T14:58:38;3.13;;;1.83;;
32788;SDS011;19141;48.980;8.410;2022-07-29T15:01:04;2.47;;;1.48;;
32788;SDS011;19141;48.980;8.410;2022-07-29T15:03:29;1.77;;;1.50;;
32788;SDS011;19141;48.980;8.410;2022-07-29T15:05:54;1.67;;;1.42;;
32788;SDS011;19141;48.980;8.410;2022-07-29T15:08:20;2.42;;;1.58;;
32788;SDS011;19141;48.980;8.410;2022-07-29T15:10:45;3.83;;;1.50;;
32788;SDS011;19141;48.980;8.410;2022-07-29T15:13:11;4.88;;;1.50;;
32788;SDS011;19141;48.980;8.410;2022-07-29T15:15:37;5.05;;;1.33;;
32788;SDS011;19141;48.980;8.410;2022-07-29T15:18:03;3.45;;;1.48;;
32788;SDS011;19141;48.980;8.410;2022-07-29T15:20:28;3.40;;;1.40;;
32788;SDS011;19141;48.980;8.410;2022-07-29T15:22:54;2.28;;;1.50;;
32788;SDS011;19141;48.980;8.410;2022-07-29T15:25:21;2.90;;;1.30;;
32788;SDS011;19141;48.980;8.410;2022-07-29T15:27:47;1.88;;;1.27;;
32788;SDS011;19141;48.980;8.410;2022-07-29T15:30:13;5.15;;;1.20;;
32788;SDS011;19141;48.980;8.410;2022-07-29T15:32:42;4.20;;;1.45;;
32788;SDS011;19141;48.980;8.410;2022-07-29T15:35:08;2.95;;;1.08;;
32788;SDS011;19141;48.980;8.410;2022-07-29T15:37:35;7.57;;;2.13;;
32788;SDS011;19141;48.980;8.410;2022-07-29T15:40:01;2.33;;;1.52;;
32788;SDS011;19141;48.980;8.410;2022-07-29T15:42:27;2.72;;;1.60;;
32788;SDS011;19141;48.980;8.410;2022-07-29T15:44:52;1.85;;;1.25;;
32788;SDS011;19141;48.980;8.410;2022-07-29T15:47:18;3.03;;;1.45;;
32788;SDS011;19141;48.980;8.410;2022-07-29T15:49:43;2.78;;;1.52;;
32788;SDS011;19141;48.980;8.410;2022-07-29T15:52:09;3.53;;;2.00;;
32788;SDS011;19141;48.980;8.410;2022-07-29T15:54:36;3.45;;;1.70;;
32788;SDS011;19141;48.980;8.410;2022-07-29T15:57:03;3.10;;;1.45;;
32788;SDS011;19141;48.980;8.410;2022-07-29T15:59:29;2.80;;;1.40;;
32788;SDS011;19141;48.980;8.410;2022-07-29T16:01:55;2.03;;;1.10;;
32788;SDS011;19141;48.980;8.410;2022-07-29T16:04:21;3.55;;;1.20;;
32788;SDS011;19141;48.980;8.410;2022-07-29T16:06:47;1.92;;;1.20;;
32788;SDS011;19141;48.980;8.410;2022-07-29T16:09:16;1.95;;;1.23;;
32788;SDS011;19141;48.980;8.410;2022-07-29T16:11:42;1.63;;;1.30;;
32788;SDS011;19141;48.980;8.410;2022-07-29T16:14:08;3.33;;;1.60;;
32788;SDS011;19141;48.980;8.410;2022-07-29T16:16:35;3.65;;;1.92;;
32788;SDS011;19141;48.980;8.410;2022-07-29T16:19:00;3.60;;;1.50;;
32788;SDS011;19141;48.980;8.410;2022-07-29T16:21:26;4.60;;;1.98;;
32788;SDS011;19141;48.980;8.410;2022-07-29T16:23:51;4.15;;;1.40;;
32788;SDS011;19141;48.980;8.410;2022-07-29T16:26:17;3.05;;;1.75;;
32788;SDS011;19141;48.980;8.410;2022-07-29T16:28:42;1.70;;;1.38;;
32788;SDS011;19141;48.980;8.410;2022-07-29T16:31:08;2.35;;;1.83;;
32788;SDS011;19141;48.980;8.410;2022-07-29T16:33:33;3.03;;;1.75;;
32788;SDS011;19141;48.980;8.410;2022-07-29T16:35:59;2.90;;;1.45;;
32788;SDS011;19141;48.980;8.410;2022-07-29T16:38:24;3.83;;;1.70;;
32788;SDS011;19141;48.980;8.410;2022-07-29T16:40:50;2.83;;;1.70;;
32788;SDS011;19141;48.980;8.410;2022-07-29T16:43:15;5.57;;;1.98;;
32788;SDS011;19141;48.980;8.410;2022-07-29T16:45:41;4.97;;;1.77;;
32788;SDS011;19141;48.980;8.410;2022-07-29T16:48:06;3.28;;;1.90;;
32788;SDS011;19141;48.980;8.410;2022-07-29T16:50:32;3.20;;;1.42;;
32788;SDS011;19141;48.980;8.410;2022-07-29T16:52:57;3.40;;;1.85;;
32788;SDS011;19141;48.980;8.410;2022-07-29T16:55:23;2.45;;;1.50;;
32788;SDS011;19141;48.980;8.410;2022-07-29T16:57:48;5.10;;;1.60;;
32788;SDS011;19141;48.980;8.410;2022-07-29T17:00:14;3.25;;;1.67;;
32788;SDS011;19141;48.980;8.410;2022-07-29T17:02:41;3.53;;;1.80;;
32788;SDS011;19141;48.980;8.410;2022-07-29T17:05:07;1.58;;;1.45;;
32788;SDS011;19141;48.980;8.410;2022-07-29T17:07:33;2.00;;;1.77;;
32788;SDS011;19141;48.980;8.410;2022-07-29T17:09:58;4.05;;;1.75;;
32788;SDS011;19141;48.980;8.410;2022-07-29T17:12:24;5.15;;;2.08;;
32788;SDS011;19141;48.980;8.410;2022-07-29T17:14:49;4.15;;;2.13;;
32788;SDS011;19141;48.980;8.410;2022-07-29T17:17:15;2.13;;;1.55;;
32788;SDS011;19141;48.980;8.410;2022-07-29T17:19:41;5.03;;;1.60;;
32788;SDS011;19141;48.980;8.410;2022-07-29T17:22:07;3.53;;;1.80;;
32788;SDS011;19141;48.980;8.410;2022-07-29T17:24:32;3.22;;;1.67;;
32788;SDS011;19141;48.980;8.410;2022-07-29T17:26:58;2.47;;;1.40;;
32788;SDS011;19141;48.980;8.410;2022-07-29T17:29:24;2.70;;;2.10;;
32788;SDS011;19141;48.980;8.410;2022-07-29T17:31:49;4.30;;;1.50;;
32788;SDS011;19141;48.980;8.410;2022-07-29T17:34:15;4.75;;;1.90;;
32788;SDS011;19141;48.980;8.410;2022-07-29T17:36:40;3.13;;;1.40;;
32788;SDS011;19141;48.980;8.410;2022-07-29T17:39:06;5.28;;;1.85;;
32788;SDS011;19141;48.980;8.410;2022-07-29T17:41:33;3.08;;;1.45;;
32788;SDS011;19141;48.980;8.410;2022-07-29T17:43:58;1.60;;;1.30;;
32788;SDS011;19141;48.980;8.410;2022-07-29T17:46:24;1.85;;;1.55;;
32788;SDS011;19141;48.980;8.410;2022-07-29T17:48:53;1.70;;;1.23;;
32788;SDS011;19141;48.980;8.410;2022-07-29T17:51:20;2.55;;;1.30;;
32788;SDS011;19141;48.980;8.410;2022-07-29T17:53:46;4.15;;;1.42;;
32788;SDS011;19141;48.980;8.410;2022-07-29T17:56:12;2.22;;;1.35;;
32788;SDS011;19141;48.980;8.410;2022-07-29T17:58:38;3.72;;;1.65;;
32788;SDS011;19141;48.980;8.410;2022-07-29T18:01:04;2.58;;;1.65;;
32788;SDS011;19141;48.980;8.410;2022-07-29T18:03:29;3.50;;;1.60;;
32788;SDS011;19141;48.980;8.410;2022-07-29T18:05:55;2.58;;;1.60;;
32788;SDS011;19141;48.980;8.410;2022-07-29T18:08:21;3.08;;;1.52;;
32788;SDS011;19141;48.980;8.410;2022-07-29T18:10:46;2.83;;;1.67;;
32788;SDS011;19141;48.980;8.410;2022-07-29T18:13:12;6.45;;;1.65;;
32788;SDS011;19141;48.980;8.410;2022-07-29T18:15:38;3.13;;;1.63;;
32788;SDS011;19141;48.980;8.410;2022-07-29T18:18:04;6.60;;;1.73;;
32788;SDS011;19141;48.980;8.410;2022-07-29T18:20:30;2.95;;;1.77;;
32788;SDS011;19141;48.980;8.410;2022-07-29T18:22:55;3.58;;;2.42;;
32788;SDS011;19141;48.980;8.410;2022-07-29T18:25:21;3.75;;;1.63;;
32788;SDS011;19141;48.980;8.410;2022-07-29T18:27:46;2.95;;;1.80;;
32788;SDS011;19141;48.980;8.410;2022-07-29T18:30:12;3.90;;;2.10;;
32788;SDS011;19141;48.980;8.410;2022-07-29T18:32:39;2.75;;;1.33;;
32788;SDS011;19141;48.980;8.410;2022-07-29T18:35:04;2.53;;;1.70;;
32788;SDS011;19141;48.980;8.410;2022-07-29T18:37:30;2.58;;;1.55;;
32788;SDS011;19141;48.980;8.410;2022-07-29T18:39:56;2.70;;;1.88;;
32788;SDS011;19141;48.980;8.410;2022-07-29T18:42:21;3.20;;;1.40;;
32788;SDS011;19141;48.980;8.410;2022-07-29T18:44:46;3.17;;;1.77;;
32788;SDS011;19141;48.980;8.410;2022-07-29T18:47:12;4.38;;;1.83;;
32788;SDS011;19141;48.980;8.410;2022-07-29T18:49:37;2.30;;;1.55;;
32788;SDS011;19141;48.980;8.410;2022-07-29T18:52:03;2.92;;;1.52;;
32788;SDS011;19141;48.980;8.410;2022-07-29T18:54:29;3.28;;;1.80;;
32788;SDS011;19141;48.980;8.410;2022-07-29T18:56:55;3.70;;;1.90;;
32788;SDS011;19141;48.980;8.410;2022-07-29T18:59:21;4.93;;;1.77;;
32788;SDS011;19141;48.980;8.410;2022-07-29T19:01:46;3.50;;;1.85;;
32788;SDS011;19141;48.980;8.410;2022-07-29T19:04:12;4.80;;;1.73;;
32788;SDS011;19141;48.980;8.410;2022-07-29T19:06:38;4.22;;;1.95;;
32788;SDS011;19141;48.980;8.410;2022-07-29T19:09:04;3.30;;;2.00;;
32788;SDS011;19141;48.980;8.410;2022-07-29T19:11:32;3.05;;;1.63;;
32788;SDS011;19141;48.980;8.410;2022-07-29T19:14:02;6.88;;;1.95;;
32788;SDS011;19141;48.980;8.410;2022-07-29T19:16:28;2.60;;;1.73;;
32788;SDS011;19141;48.980;8.410;2022-07-29T19:18:54;3.42;;;1.88;;
32788;SDS011;19141;48.980;8.410;2022-07-29T19:21:20;4.28;;;1.80;;
32788;SDS011;19141;48.980;8.410;2022-07-29T19:23:46;3.75;;;2.00;;
32788;SDS011;19141;48.980;8.410;2022-07-29T19:26:12;3.15;;;2.10;;
32788;SDS011;19141;48.980;8.410;2022-07-29T19:28:37;2.85;;;1.65;;
32788;SDS011;19141;48.980;8.410;2022-07-29T19:31:03;2.58;;;1.95;;
32788;SDS011;19141;48.980;8.410;2022-07-29T19:33:28;3.05;;;1.70;;
32788;SDS011;19141;48.980;8.410;2022-07-29T19:35:54;2.25;;;1.70;;
32788;SDS011;19141;48.980;8.410;2022-07-29T19:38:20;3.10;;;2.03;;
32788;SDS011;19141;48.980;8.410;2022-07-29T19:40:45;1.75;;;1.63;;
32788;SDS011;19141;48.980;8.410;2022-07-29T19:43:11;3.80;;;1.80;;
32788;SDS011;19141;48.980;8.410;2022-07-29T19:45:37;2.97;;;1.45;;